createdAt,value
2022-11-14T00:00:06.412Z,4.50
2022-11-14T00:01:06.292Z,5.20
2022-11-14T00:02:06.286Z,4.90
2022-11-14T00:03:06.364Z,5.50
2022-11-14T00:04:06.274Z,5.40
2022-11-14T00:05:06.273Z,5.90
2022-11-14T00:06:06.262Z,5.80
2022-11-14T00:07:06.361Z,5.60
2022-11-14T00:08:06.250Z,5.60
2022-11-14T00:09:06.256Z,6.00
2022-11-14T00:10:06.237Z,5.70
2022-11-14T00:11:06.234Z,5.90
2022-11-14T00:12:06.224Z,6.10
2022-11-14T00:13:06.221Z,5.90
2022-11-14T00:14:06.217Z,5.70
2022-11-14T00:15:06.216Z,5.90
2022-11-14T00:16:06.326Z,5.90
2022-11-14T00:17:06.199Z,6.10
2022-11-14T00:18:06.194Z,5.80
2022-11-14T00:19:06.188Z,6.00
2022-11-14T00:20:06.182Z,6.10
2022-11-14T00:21:06.174Z,5.80
2022-11-14T00:22:06.171Z,5.80
2022-11-14T00:23:06.165Z,5.40
2022-11-14T00:24:06.156Z,5.50
2022-11-14T00:25:06.152Z,5.70
2022-11-14T00:26:06.143Z,5.90
2022-11-14T00:27:06.138Z,5.50
2022-11-14T00:28:06.583Z,5.50
2022-11-14T00:29:06.141Z,5.50
2022-11-14T00:30:06.120Z,5.80
2022-11-14T00:31:06.121Z,5.80
2022-11-14T00:32:06.216Z,5.50
2022-11-14T00:33:06.108Z,5.90
2022-11-14T00:34:06.097Z,5.60
2022-11-14T00:35:06.094Z,5.10
2022-11-14T00:36:06.090Z,5.20
2022-11-14T00:37:06.086Z,6.10
2022-11-14T00:38:06.073Z,5.40
2022-11-14T00:39:06.068Z,5.90
2022-11-14T00:40:06.060Z,5.60
2022-11-14T00:41:06.058Z,5.50
2022-11-14T00:42:06.050Z,5.50
2022-11-14T00:43:06.050Z,5.40
2022-11-14T00:44:06.036Z,5.40
2022-11-14T00:45:06.034Z,5.60
2022-11-14T00:46:06.030Z,5.70
2022-11-14T00:47:06.025Z,5.40
2022-11-14T00:48:06.128Z,5.50
2022-11-14T00:49:06.013Z,5.90
2022-11-14T00:50:06.003Z,5.30
2022-11-14T00:51:06.002Z,5.30
2022-11-14T00:52:05.993Z,5.30
2022-11-14T00:53:05.985Z,5.30
2022-11-14T00:54:05.980Z,4.90
2022-11-14T00:55:05.977Z,5.30
2022-11-14T00:56:05.979Z,5.00
2022-11-14T00:57:05.969Z,4.90
2022-11-14T00:58:05.956Z,4.70
2022-11-14T00:59:05.959Z,4.90
2022-11-14T01:00:05.944Z,5.20
2022-11-14T01:01:06.009Z,4.70
2022-11-14T01:02:05.935Z,4.30
2022-11-14T01:03:05.934Z,4.80
2022-11-14T01:04:06.040Z,4.60
2022-11-14T01:05:05.917Z,5.10
2022-11-14T01:06:05.911Z,4.50
2022-11-14T01:07:05.905Z,4.60
2022-11-14T01:08:05.897Z,4.60
2022-11-14T01:09:05.944Z,4.80
2022-11-14T01:10:05.885Z,4.60
2022-11-14T01:11:05.882Z,4.90
2022-11-14T01:12:05.872Z,5.40
2022-11-14T01:13:05.873Z,4.40
2022-11-14T01:14:05.862Z,4.50
2022-11-14T01:15:05.856Z,4.70
2022-11-14T01:16:05.848Z,4.50
2022-11-14T01:17:05.847Z,4.70
2022-11-14T01:18:05.838Z,4.30
2022-11-14T01:19:05.835Z,4.70
2022-11-14T01:20:05.937Z,4.70
2022-11-14T01:21:05.825Z,4.70
2022-11-14T01:22:06.624Z,4.30
2022-11-14T01:23:05.810Z,4.40
2022-11-14T01:24:05.801Z,4.60
2022-11-14T01:25:05.799Z,4.50
2022-11-14T01:26:05.793Z,4.90
2022-11-14T01:27:05.787Z,4.00
2022-11-14T01:28:05.781Z,4.50
2022-11-14T01:29:05.776Z,4.70
2022-11-14T01:30:05.767Z,4.40
2022-11-14T01:31:05.762Z,4.30
2022-11-14T01:32:05.753Z,4.30
2022-11-14T01:33:05.747Z,4.80
2022-11-14T01:34:05.743Z,4.40
2022-11-14T01:35:05.738Z,4.00
2022-11-14T01:36:05.843Z,4.90
2022-11-14T01:37:05.725Z,4.40
2022-11-14T01:38:05.717Z,4.30
2022-11-14T01:39:05.713Z,4.40
2022-11-14T01:40:05.711Z,4.20
2022-11-14T01:41:05.703Z,3.90
2022-11-14T01:42:05.705Z,4.40
2022-11-14T01:43:05.690Z,4.20
2022-11-14T01:44:05.683Z,3.90
2022-11-14T01:45:05.678Z,4.10
2022-11-14T01:46:05.674Z,3.80
2022-11-14T01:47:05.669Z,4.50
2022-11-14T01:48:05.657Z,4.60
2022-11-14T01:49:05.656Z,4.70
2022-11-14T01:50:05.650Z,4.30
2022-11-14T01:51:05.649Z,5.50
2022-11-14T01:52:05.754Z,5.10
2022-11-14T01:53:05.631Z,4.70
2022-11-14T01:54:05.623Z,5.20
2022-11-14T01:55:05.622Z,4.70
2022-11-14T01:56:05.614Z,5.00
2022-11-14T01:57:05.603Z,5.00
2022-11-14T01:58:05.598Z,4.50
2022-11-14T01:59:05.599Z,4.80
2022-11-14T02:00:05.592Z,4.60
2022-11-14T02:01:05.645Z,5.10
2022-11-14T02:02:05.572Z,5.20
2022-11-14T02:03:05.570Z,5.00
2022-11-14T02:04:06.761Z,5.20
2022-11-14T02:05:05.555Z,4.80
2022-11-14T02:06:05.546Z,5.20
2022-11-14T02:07:05.570Z,5.50
2022-11-14T02:08:05.652Z,5.40
2022-11-14T02:09:05.531Z,5.40
2022-11-14T02:10:05.523Z,5.50
2022-11-14T02:11:05.520Z,5.30
2022-11-14T02:12:05.513Z,5.40
2022-11-14T02:13:05.507Z,5.40
2022-11-14T02:14:05.499Z,5.30
2022-11-14T02:15:05.495Z,5.40
2022-11-14T02:16:05.484Z,5.50
2022-11-14T02:17:28.354Z,4.80
2022-11-14T02:18:05.474Z,4.40
2022-11-14T02:19:05.478Z,4.50
2022-11-14T02:20:05.784Z,4.50
2022-11-14T02:21:05.459Z,4.80
2022-11-14T02:22:05.451Z,5.20
2022-11-14T02:23:05.448Z,4.70
2022-11-14T02:24:05.546Z,4.80
2022-11-14T02:25:05.432Z,5.00
2022-11-14T02:26:05.425Z,4.70
2022-11-14T02:27:05.427Z,4.70
2022-11-14T02:28:05.413Z,4.90
2022-11-14T02:29:05.409Z,4.90
2022-11-14T02:30:05.400Z,5.20
2022-11-14T02:31:05.395Z,4.60
2022-11-14T02:32:09.534Z,4.30
2022-11-14T02:33:12.461Z,4.70
2022-11-14T02:34:05.380Z,4.70
2022-11-14T02:35:05.372Z,4.50
2022-11-14T02:36:05.364Z,4.60
2022-11-14T02:37:05.360Z,4.60
2022-11-14T02:38:05.352Z,4.50
2022-11-14T02:39:05.346Z,4.50
2022-11-14T02:40:05.453Z,4.50
2022-11-14T02:41:05.336Z,4.30
2022-11-14T02:42:05.326Z,4.30
2022-11-14T02:43:05.325Z,4.70
2022-11-14T02:44:05.315Z,5.10
2022-11-14T02:45:05.309Z,5.40
2022-11-14T02:46:05.988Z,4.50
2022-11-14T02:47:05.303Z,4.70
2022-11-14T02:48:05.290Z,4.70
2022-11-14T02:49:05.283Z,4.80
2022-11-14T02:50:05.278Z,4.60
2022-11-14T02:51:05.273Z,5.30
2022-11-14T02:52:05.271Z,4.60
2022-11-14T02:53:05.261Z,4.60
2022-11-14T02:54:05.253Z,4.60
2022-11-14T02:55:05.258Z,4.40
2022-11-14T02:56:05.354Z,4.60
2022-11-14T02:57:05.235Z,4.40
2022-11-14T02:58:05.227Z,4.30
2022-11-14T02:59:05.221Z,4.20
2022-11-14T03:00:07.719Z,4.90
2022-11-14T03:01:19.865Z,4.70
2022-11-14T03:02:05.326Z,4.50
2022-11-14T03:03:05.198Z,4.40
2022-11-14T03:04:05.192Z,4.50
2022-11-14T03:05:05.188Z,4.70
2022-11-14T03:06:05.181Z,4.50
2022-11-14T03:07:05.265Z,5.00
2022-11-14T03:08:05.164Z,4.80
2022-11-14T03:09:05.166Z,5.00
2022-11-14T03:10:05.162Z,5.30
2022-11-14T03:11:05.153Z,5.00
2022-11-14T03:12:05.256Z,4.60
2022-11-14T03:13:05.140Z,5.00
2022-11-14T03:14:05.129Z,4.70
2022-11-14T03:15:05.124Z,5.30
2022-11-14T03:16:05.118Z,4.90
2022-11-14T03:17:05.112Z,4.80
2022-11-14T03:18:05.109Z,5.10
2022-11-14T03:19:05.099Z,4.90
2022-11-14T03:20:05.095Z,5.00
2022-11-14T03:21:05.085Z,4.80
2022-11-14T03:22:05.084Z,5.30
2022-11-14T03:23:05.078Z,5.00
2022-11-14T03:24:05.069Z,5.30
2022-11-14T03:25:05.058Z,5.10
2022-11-14T03:26:05.055Z,5.40
2022-11-14T03:27:05.048Z,5.50
2022-11-14T03:28:05.159Z,5.20
2022-11-14T03:29:05.042Z,5.30
2022-11-14T03:30:05.030Z,5.40
2022-11-14T03:31:05.020Z,5.20
2022-11-14T03:32:05.018Z,5.20
2022-11-14T03:33:05.008Z,5.40
2022-11-14T03:34:05.002Z,5.00
2022-11-14T03:35:04.999Z,5.10
2022-11-14T03:36:04.994Z,5.50
2022-11-14T03:37:04.982Z,5.20
2022-11-14T03:38:04.984Z,5.40
2022-11-14T03:39:04.974Z,5.00
2022-11-14T03:40:04.978Z,5.00
2022-11-14T03:41:04.958Z,5.20
2022-11-14T03:42:04.962Z,5.50
2022-11-14T03:43:04.946Z,5.20
2022-11-14T03:44:05.053Z,5.20
2022-11-14T03:45:04.932Z,5.50
2022-11-14T03:46:04.930Z,5.50
2022-11-14T03:47:04.925Z,5.40
2022-11-14T03:48:04.915Z,5.40
2022-11-14T03:49:04.908Z,4.90
2022-11-14T03:50:04.907Z,5.00
2022-11-14T03:51:04.895Z,5.00
2022-11-14T03:52:04.888Z,5.20
2022-11-14T03:53:04.883Z,4.80
2022-11-14T03:54:04.878Z,5.40
2022-11-14T03:55:04.873Z,5.40
2022-11-14T03:56:04.866Z,5.30
2022-11-14T03:57:04.859Z,5.30
2022-11-14T03:58:04.874Z,5.20
2022-11-14T03:59:04.850Z,4.70
2022-11-14T04:00:04.961Z,5.50
2022-11-14T04:01:04.859Z,5.10
2022-11-14T04:02:04.836Z,5.30
2022-11-14T04:03:04.820Z,5.20
2022-11-14T04:04:04.819Z,5.50
2022-11-14T04:05:04.810Z,5.60
2022-11-14T04:06:04.800Z,5.30
2022-11-14T04:07:04.845Z,5.10
2022-11-14T04:08:04.789Z,5.10
2022-11-14T04:09:04.784Z,5.10
2022-11-14T04:10:04.780Z,4.30
2022-11-14T04:11:04.770Z,4.80
2022-11-14T04:12:04.766Z,4.80
2022-11-14T04:13:04.760Z,4.70
2022-11-14T04:14:04.756Z,4.60
2022-11-14T04:15:04.743Z,4.90
2022-11-14T04:16:04.849Z,5.10
2022-11-14T04:17:04.731Z,5.20
2022-11-14T04:18:04.725Z,4.90
2022-11-14T04:19:04.721Z,5.00
2022-11-14T04:20:04.712Z,4.70
2022-11-14T04:21:04.707Z,4.50
2022-11-14T04:22:04.701Z,4.90
2022-11-14T04:23:04.693Z,5.30
2022-11-14T04:24:09.904Z,5.20
2022-11-14T04:25:04.687Z,4.70
2022-11-14T04:26:04.678Z,4.80
2022-11-14T04:27:04.666Z,5.50
2022-11-14T04:28:04.666Z,4.40
2022-11-14T04:29:04.655Z,4.60
2022-11-14T04:30:04.708Z,4.80
2022-11-14T04:31:04.641Z,4.90
2022-11-14T04:32:04.754Z,5.20
2022-11-14T04:33:04.885Z,5.00
2022-11-14T04:34:04.632Z,5.10
2022-11-14T04:35:04.618Z,4.90
2022-11-14T04:36:04.613Z,4.80
2022-11-14T04:37:04.614Z,5.50
2022-11-14T04:38:04.601Z,4.80
2022-11-14T04:39:04.591Z,4.70
2022-11-14T04:40:04.596Z,4.80
2022-11-14T04:41:04.581Z,4.70
2022-11-14T04:42:04.579Z,4.50
2022-11-14T04:43:04.570Z,4.40
2022-11-14T04:44:04.559Z,4.10
2022-11-14T04:45:04.643Z,4.50
2022-11-14T04:46:04.552Z,4.10
2022-11-14T04:47:04.545Z,4.10
2022-11-14T04:48:04.651Z,4.40
2022-11-14T04:49:04.528Z,4.70
2022-11-14T04:50:04.523Z,4.50
2022-11-14T04:51:04.516Z,4.50
2022-11-14T04:52:04.512Z,4.70
2022-11-14T04:53:04.502Z,4.90
2022-11-14T04:54:04.513Z,4.80
2022-11-14T04:55:04.488Z,5.00
2022-11-14T04:56:04.488Z,5.20
2022-11-14T04:57:04.480Z,4.70
2022-11-14T04:58:04.471Z,4.60
2022-11-14T04:59:04.466Z,5.00
2022-11-14T05:00:04.458Z,4.80
2022-11-14T05:01:04.497Z,4.90
2022-11-14T05:02:04.448Z,4.70
2022-11-14T05:03:04.443Z,4.70
2022-11-14T05:04:04.456Z,5.50
2022-11-14T05:05:04.424Z,4.70
2022-11-14T05:06:04.422Z,4.50
2022-11-14T05:07:04.480Z,5.20
2022-11-14T05:08:04.407Z,4.30
2022-11-14T05:09:04.410Z,4.80
2022-11-14T05:10:04.403Z,4.70
2022-11-14T05:11:04.393Z,4.40
2022-11-14T05:12:04.392Z,4.40
2022-11-14T05:13:04.375Z,4.70
2022-11-14T05:14:04.368Z,4.40
2022-11-14T05:15:04.363Z,4.90
2022-11-14T05:16:04.359Z,5.00
2022-11-14T05:17:04.350Z,4.70
2022-11-14T05:18:04.348Z,5.10
2022-11-14T05:20:03.264Z,5.30
2022-11-14T05:20:04.333Z,5.20
2022-11-14T05:21:04.328Z,4.90
2022-11-14T05:22:04.334Z,4.60
2022-11-14T05:23:04.313Z,4.60
2022-11-14T05:24:04.311Z,4.60
2022-11-14T05:26:48.037Z,4.80
2022-11-14T05:27:48.032Z,4.60
2022-11-14T05:28:48.025Z,4.60
2022-11-14T05:29:48.018Z,5.10
2022-11-14T05:30:48.014Z,4.80
2022-11-14T05:31:48.008Z,5.60
2022-11-14T05:32:48.001Z,4.70
2022-11-14T05:33:47.995Z,5.00
2022-11-14T05:34:47.986Z,5.00
2022-11-14T05:35:47.998Z,4.80
2022-11-14T05:36:47.971Z,5.00
2022-11-14T05:37:47.969Z,4.70
2022-11-14T05:38:47.957Z,5.10
2022-11-14T05:39:47.954Z,6.60
2022-11-14T05:40:47.953Z,5.10
2022-11-14T05:41:47.940Z,5.40
2022-11-14T05:42:47.941Z,5.30
2022-11-14T05:43:47.927Z,5.30
2022-11-14T05:44:47.928Z,5.40
2022-11-14T05:45:47.924Z,6.00
2022-11-14T05:46:47.908Z,5.80
2022-11-14T05:47:47.908Z,5.10
2022-11-14T05:48:47.894Z,6.00
2022-11-14T05:49:47.895Z,5.30
2022-11-14T05:50:47.888Z,5.20
2022-11-14T05:51:47.898Z,5.80
2022-11-14T05:52:47.877Z,5.40
2022-11-14T05:53:47.867Z,5.70
2022-11-14T05:54:47.856Z,7.00
2022-11-14T05:55:47.867Z,6.20
2022-11-14T05:56:47.841Z,6.30
2022-11-14T05:57:47.840Z,6.10
2022-11-14T05:58:47.831Z,6.30
2022-11-14T05:59:47.827Z,6.90
2022-11-14T06:00:53.390Z,6.90
2022-11-14T06:01:47.835Z,7.10
2022-11-14T06:02:47.814Z,6.60
2022-11-14T06:03:47.810Z,7.10
2022-11-14T06:04:47.806Z,7.00
2022-11-14T06:05:47.792Z,7.10
2022-11-14T06:06:47.802Z,7.40
2022-11-14T06:07:47.805Z,8.00
2022-11-14T06:08:47.771Z,8.00
2022-11-14T06:09:47.782Z,7.90
2022-11-14T06:10:47.753Z,8.00
2022-11-14T06:11:47.756Z,8.20
2022-11-14T06:12:47.741Z,8.10
2022-11-14T06:13:47.736Z,8.20
2022-11-14T06:14:47.733Z,7.40
2022-11-14T06:15:47.729Z,7.60
2022-11-14T06:16:47.718Z,7.70
2022-11-14T06:17:47.715Z,7.40
2022-11-14T06:18:47.703Z,7.70
2022-11-14T06:19:47.698Z,7.70
2022-11-14T06:20:47.692Z,7.80
2022-11-14T06:21:47.690Z,7.60
2022-11-14T06:22:47.678Z,7.80
2022-11-14T06:23:47.691Z,7.30
2022-11-14T06:24:47.666Z,7.40
2022-11-14T06:25:47.663Z,7.70
2022-11-14T06:26:47.657Z,8.30
2022-11-14T06:27:47.652Z,7.60
2022-11-14T06:28:47.641Z,7.60
2022-11-14T06:29:47.638Z,7.70
2022-11-14T06:30:47.630Z,7.60
2022-11-14T06:31:48.634Z,8.00
2022-11-14T06:32:47.616Z,8.40
2022-11-14T06:33:47.761Z,7.50
2022-11-14T06:34:47.605Z,8.30
2022-11-14T06:35:47.607Z,8.10
2022-11-14T06:36:47.591Z,8.20
2022-11-14T06:37:47.589Z,8.30
2022-11-14T06:38:47.581Z,8.60
2022-11-14T06:39:47.594Z,8.40
2022-11-14T06:40:47.565Z,8.80
2022-11-14T06:41:47.562Z,8.20
2022-11-14T06:42:47.555Z,8.90
2022-11-14T06:43:47.550Z,8.80
2022-11-14T06:44:47.548Z,10.00
2022-11-14T06:45:47.535Z,9.50
2022-11-14T06:46:47.530Z,9.80
2022-11-14T06:47:47.522Z,8.80
2022-11-14T06:48:47.517Z,11.00
2022-11-14T06:49:47.530Z,11.60
2022-11-14T06:50:47.515Z,10.30
2022-11-14T06:51:47.507Z,10.90
2022-11-14T06:52:47.492Z,10.90
2022-11-14T06:53:47.488Z,10.50
2022-11-14T06:54:47.481Z,10.20
2022-11-14T06:55:47.505Z,10.90
2022-11-14T06:56:47.469Z,10.00
2022-11-14T06:57:47.467Z,10.50
2022-11-14T06:58:47.465Z,10.20
2022-11-14T06:59:47.490Z,10.50
2022-11-14T07:00:47.444Z,10.70
2022-11-14T07:01:47.436Z,10.50
2022-11-14T07:02:47.483Z,10.80
2022-11-14T07:03:47.424Z,10.10
2022-11-14T07:04:47.427Z,10.30
2022-11-14T07:05:47.413Z,10.50
2022-11-14T07:06:47.482Z,10.50
2022-11-14T07:07:47.407Z,10.60
2022-11-14T07:08:47.393Z,10.00
2022-11-14T07:09:47.388Z,9.90
2022-11-14T07:10:47.383Z,10.80
2022-11-14T07:11:47.396Z,9.80
2022-11-14T07:12:47.368Z,9.60
2022-11-14T07:13:47.362Z,10.50
2022-11-14T07:14:47.358Z,10.20
2022-11-14T07:15:47.351Z,10.40
2022-11-14T07:16:47.343Z,10.20
2022-11-14T07:17:47.339Z,10.30
2022-11-14T07:18:47.334Z,10.10
2022-11-14T07:19:47.325Z,10.00
2022-11-14T07:20:47.322Z,9.40
2022-11-14T07:21:47.321Z,9.60
2022-11-14T07:22:47.307Z,9.30
2022-11-14T07:23:47.308Z,9.30
2022-11-14T07:24:47.304Z,9.60
2022-11-14T07:25:47.296Z,9.70
2022-11-14T07:26:47.284Z,9.80
2022-11-14T07:27:47.304Z,9.80
2022-11-14T07:28:52.269Z,10.30
2022-11-14T07:29:47.266Z,10.60
2022-11-14T07:30:47.255Z,10.30
2022-11-14T07:31:47.260Z,10.30
2022-11-14T07:32:47.245Z,10.50
2022-11-14T07:33:47.244Z,10.50
2022-11-14T07:34:47.237Z,11.00
2022-11-14T07:35:47.232Z,11.90
2022-11-14T07:36:47.224Z,12.20
2022-11-14T07:37:47.216Z,11.40
2022-11-14T07:38:47.212Z,12.00
2022-11-14T07:39:47.204Z,11.30
2022-11-14T07:40:47.196Z,11.90
2022-11-14T07:41:47.192Z,12.30
2022-11-14T07:42:47.189Z,11.70
2022-11-14T07:43:47.216Z,12.70
2022-11-14T07:44:47.174Z,12.60
2022-11-14T07:45:47.175Z,12.90
2022-11-14T07:46:47.163Z,13.00
2022-11-14T07:47:47.160Z,12.60
2022-11-14T07:48:47.150Z,12.90
2022-11-14T07:49:47.145Z,12.70
2022-11-14T07:50:47.140Z,13.30
2022-11-14T07:51:47.135Z,12.40
2022-11-14T07:52:47.147Z,13.70
2022-11-14T07:53:47.120Z,13.80
2022-11-14T07:54:47.119Z,13.70
2022-11-14T07:55:47.111Z,13.70
2022-11-14T07:56:47.102Z,13.70
2022-11-14T07:57:49.413Z,14.10
2022-11-14T07:58:47.098Z,13.60
2022-11-14T07:59:47.107Z,15.50
2022-11-14T08:00:47.179Z,15.30
2022-11-14T08:01:47.074Z,15.30
2022-11-14T08:02:47.073Z,15.30
2022-11-14T08:03:47.065Z,15.10
2022-11-14T08:04:47.097Z,15.30
2022-11-14T08:05:47.062Z,16.00
2022-11-14T08:06:47.102Z,16.40
2022-11-14T08:07:47.042Z,16.60
2022-11-14T08:08:47.037Z,15.70
2022-11-14T08:09:47.031Z,16.80
2022-11-14T08:10:47.022Z,15.90
2022-11-14T08:11:47.018Z,16.20
2022-11-14T08:12:48.391Z,16.70
2022-11-14T08:13:47.009Z,17.90
2022-11-14T08:14:46.999Z,17.50
2022-11-14T08:15:47.016Z,17.60
2022-11-14T08:16:46.986Z,18.20
2022-11-14T08:17:46.988Z,18.50
2022-11-14T08:18:46.979Z,17.50
2022-11-14T08:19:46.972Z,17.00
2022-11-14T08:20:46.965Z,17.60
2022-11-14T08:21:46.961Z,17.10
2022-11-14T08:22:46.953Z,16.90
2022-11-14T08:23:46.950Z,16.80
2022-11-14T08:24:46.946Z,18.50
2022-11-14T08:25:46.942Z,17.70
2022-11-14T08:26:46.934Z,17.00
2022-11-14T08:27:46.928Z,17.70
2022-11-14T08:28:46.922Z,17.90
2022-11-14T08:29:46.916Z,19.20
2022-11-14T08:30:46.910Z,18.60
2022-11-14T08:31:46.945Z,19.00
2022-11-14T08:32:46.898Z,19.20
2022-11-14T08:33:46.906Z,21.40
2022-11-14T08:34:46.895Z,23.00
2022-11-14T08:35:46.888Z,23.00
2022-11-14T08:36:46.876Z,24.20
2022-11-14T08:37:46.879Z,24.60
2022-11-14T08:38:46.866Z,24.10
2022-11-14T08:39:46.864Z,24.90
2022-11-14T08:40:46.861Z,24.80
2022-11-14T08:41:46.857Z,25.70
2022-11-14T08:42:46.856Z,27.00
2022-11-14T08:43:46.839Z,25.90
2022-11-14T08:44:51.851Z,25.40
2022-11-14T08:45:46.832Z,26.70
2022-11-14T08:46:46.825Z,25.60
2022-11-14T08:47:46.838Z,26.80
2022-11-14T08:48:46.822Z,26.20
2022-11-14T08:49:46.808Z,25.80
2022-11-14T08:50:46.804Z,27.20
2022-11-14T08:51:46.803Z,26.40
2022-11-14T08:52:46.793Z,26.00
2022-11-14T08:53:46.786Z,26.20
2022-11-14T08:54:46.790Z,23.70
2022-11-14T08:55:46.779Z,25.30
2022-11-14T08:56:46.771Z,25.30
2022-11-14T08:57:49.652Z,25.50
2022-11-14T08:58:46.759Z,25.60
2022-11-14T08:59:46.755Z,27.00
2022-11-14T09:00:46.749Z,25.90
2022-11-14T09:01:46.746Z,25.80
2022-11-14T09:02:46.791Z,25.10
2022-11-14T09:03:46.960Z,24.60
2022-11-14T09:04:46.778Z,26.00
2022-11-14T09:05:46.723Z,25.30
2022-11-14T09:06:46.823Z,25.30
2022-11-14T09:07:46.711Z,25.10
2022-11-14T09:08:46.710Z,26.70
2022-11-14T09:09:46.707Z,27.30
2022-11-14T09:10:46.697Z,25.70
2022-11-14T09:11:46.717Z,26.30
2022-11-14T09:12:46.686Z,25.60
2022-11-14T09:13:46.679Z,28.00
2022-11-14T09:14:46.674Z,25.20
2022-11-14T09:15:46.668Z,25.70
2022-11-14T09:16:46.666Z,26.20
2022-11-14T09:17:46.720Z,25.60
2022-11-14T09:18:46.718Z,25.10
2022-11-14T09:19:46.678Z,25.70
2022-11-14T09:20:46.642Z,24.50
2022-11-14T09:21:46.641Z,26.30
2022-11-14T09:22:46.641Z,24.30
2022-11-14T09:23:46.632Z,26.90
2022-11-14T09:24:46.623Z,25.80
2022-11-14T09:25:46.624Z,25.90
2022-11-14T09:26:46.619Z,25.60
2022-11-14T09:27:46.623Z,24.70
2022-11-14T09:28:46.599Z,25.60
2022-11-14T09:29:46.597Z,25.70
2022-11-14T09:30:46.589Z,25.90
2022-11-14T09:31:46.595Z,25.50
2022-11-14T09:32:46.579Z,25.20
2022-11-14T09:33:46.577Z,25.00
2022-11-14T09:34:46.569Z,26.40
2022-11-14T09:35:46.600Z,24.70
2022-11-14T09:36:46.577Z,23.30
2022-11-14T09:37:46.561Z,26.60
2022-11-14T09:38:46.554Z,24.80
2022-11-14T09:39:46.545Z,25.40
2022-11-14T09:40:46.542Z,24.80
2022-11-14T09:41:46.533Z,24.40
2022-11-14T09:42:46.529Z,24.70
2022-11-14T09:43:46.529Z,24.10
2022-11-14T09:44:46.518Z,23.70
2022-11-14T09:45:46.511Z,23.50
2022-11-14T09:46:46.509Z,23.00
2022-11-14T09:47:46.509Z,20.60
2022-11-14T09:48:46.500Z,22.60
2022-11-14T09:49:46.492Z,21.60
2022-11-14T09:50:46.486Z,18.70
2022-11-14T09:51:46.502Z,19.80
2022-11-14T09:52:46.477Z,19.00
2022-11-14T09:53:46.479Z,19.70
2022-11-14T09:54:46.479Z,20.00
2022-11-14T09:55:46.462Z,19.10
2022-11-14T09:56:46.457Z,16.80
2022-11-14T09:57:46.465Z,16.90
2022-11-14T09:58:46.452Z,17.00
2022-11-14T09:59:46.453Z,16.80
2022-11-14T10:00:46.440Z,17.00
2022-11-14T10:01:46.496Z,16.10
2022-11-14T10:02:46.429Z,17.20
2022-11-14T10:03:46.422Z,16.70
2022-11-14T10:04:46.420Z,17.00
2022-11-14T10:05:46.413Z,17.20
2022-11-14T10:06:46.447Z,16.70
2022-11-14T10:07:46.432Z,18.10
2022-11-14T10:08:46.400Z,15.60
2022-11-14T10:09:46.391Z,16.30
2022-11-14T10:10:46.387Z,17.40
2022-11-14T10:11:46.381Z,16.90
2022-11-14T10:12:46.380Z,17.20
2022-11-14T10:13:46.371Z,17.10
2022-11-14T10:14:46.373Z,16.30
2022-11-14T10:15:46.362Z,15.90
2022-11-14T10:16:46.359Z,16.30
2022-11-14T10:17:46.349Z,16.40
2022-11-14T10:18:46.351Z,15.50
2022-11-14T10:19:46.341Z,15.40
2022-11-14T10:20:46.341Z,15.40
2022-11-14T10:21:46.331Z,14.60
2022-11-14T10:22:46.327Z,15.50
2022-11-14T10:23:46.342Z,15.30
2022-11-14T10:24:46.315Z,14.30
2022-11-14T10:25:46.315Z,14.80
2022-11-14T10:26:46.309Z,15.00
2022-11-14T10:27:49.123Z,14.20
2022-11-14T10:28:46.297Z,13.70
2022-11-14T10:29:46.290Z,13.40
2022-11-14T10:30:46.287Z,14.70
2022-11-14T10:31:46.281Z,14.90
2022-11-14T10:32:46.275Z,14.10
2022-11-14T10:33:46.274Z,13.80
2022-11-14T10:34:46.271Z,14.30
2022-11-14T10:35:46.261Z,13.80
2022-11-14T10:36:46.271Z,13.20
2022-11-14T10:37:46.253Z,14.60
2022-11-14T10:38:46.259Z,13.50
2022-11-14T10:39:46.261Z,13.50
2022-11-14T10:40:46.262Z,14.30
2022-11-14T10:42:06.249Z,14.10
2022-11-14T10:42:46.234Z,14.50
2022-11-14T10:43:46.230Z,13.90
2022-11-14T10:44:46.225Z,14.60
2022-11-14T10:45:46.216Z,15.30
2022-11-14T10:46:46.215Z,14.90
2022-11-14T10:47:46.205Z,14.70
2022-11-14T10:48:46.203Z,14.80
2022-11-14T10:49:46.192Z,14.40
2022-11-14T10:50:46.191Z,16.20
2022-11-14T10:51:46.190Z,16.90
2022-11-14T10:52:46.180Z,17.00
2022-11-14T10:53:46.176Z,17.60
2022-11-14T10:54:46.173Z,18.60
2022-11-14T10:56:03.070Z,17.40
2022-11-14T10:56:46.158Z,17.70
2022-11-14T10:57:46.155Z,17.50
2022-11-14T10:58:49.061Z,18.00
2022-11-14T10:59:46.146Z,17.80
2022-11-14T11:00:46.197Z,17.50
2022-11-14T11:01:46.141Z,17.90
2022-11-14T11:02:46.135Z,18.40
2022-11-14T11:03:46.176Z,18.50
2022-11-14T11:04:46.126Z,18.50
2022-11-14T11:05:46.116Z,17.80
2022-11-14T11:06:46.229Z,19.70
2022-11-14T11:07:46.108Z,19.00
2022-11-14T11:08:46.474Z,19.00
2022-11-14T11:09:46.438Z,18.20
2022-11-14T11:10:46.117Z,19.00
2022-11-14T11:11:46.105Z,17.70
2022-11-14T11:12:46.354Z,19.70
2022-11-14T11:13:46.080Z,18.70
2022-11-14T11:14:46.079Z,19.10
2022-11-14T11:15:46.069Z,18.10
2022-11-14T11:16:46.064Z,18.80
2022-11-14T11:17:46.059Z,17.70
2022-11-14T11:18:50.547Z,17.80
2022-11-14T11:19:46.051Z,18.30
2022-11-14T11:20:46.044Z,19.30
2022-11-14T11:21:46.084Z,19.00
2022-11-14T11:22:46.036Z,18.70
2022-11-14T11:23:46.042Z,17.80
2022-11-14T11:24:46.027Z,19.80
2022-11-14T11:25:46.024Z,18.30
2022-11-14T11:26:46.016Z,19.00
2022-11-14T11:27:46.029Z,18.50
2022-11-14T11:28:46.008Z,18.80
2022-11-14T11:29:46.005Z,18.40
2022-11-14T11:30:49.453Z,18.10
2022-11-14T11:31:45.996Z,18.70
2022-11-14T11:32:45.990Z,18.30
2022-11-14T11:33:45.982Z,18.60
2022-11-14T11:34:45.978Z,18.80
2022-11-14T11:35:45.977Z,18.50
2022-11-14T11:36:45.975Z,18.00
2022-11-14T11:37:45.966Z,18.20
2022-11-14T11:38:45.965Z,18.40
2022-11-14T11:39:45.956Z,19.50
2022-11-14T11:40:45.963Z,18.00
2022-11-14T11:42:08.708Z,18.30
2022-11-14T11:43:45.958Z,18.10
2022-11-14T11:44:45.930Z,18.90
2022-11-14T11:45:45.925Z,18.30
2022-11-14T11:46:45.922Z,18.50
2022-11-14T11:47:45.919Z,17.30
2022-11-14T11:48:45.915Z,18.30
2022-11-14T11:49:51.790Z,18.30
2022-11-14T11:50:45.903Z,17.80
2022-11-14T11:51:45.905Z,18.10
2022-11-14T11:52:45.901Z,19.40
2022-11-14T11:53:45.892Z,17.40
2022-11-14T11:54:45.886Z,18.10
2022-11-14T11:55:45.918Z,18.10
2022-11-14T11:56:45.894Z,17.70
2022-11-14T11:57:45.870Z,17.80
2022-11-14T11:58:45.871Z,18.30
2022-11-14T11:59:45.883Z,18.20
2022-11-14T12:00:45.863Z,18.00
2022-11-14T12:01:45.852Z,18.70
2022-11-14T12:02:49.823Z,17.40
2022-11-14T12:03:45.957Z,17.60
2022-11-14T12:04:45.841Z,17.80
2022-11-14T12:05:45.836Z,17.20
2022-11-14T12:06:45.912Z,17.70
2022-11-14T12:07:45.826Z,18.00
2022-11-14T12:08:45.827Z,18.80
2022-11-14T12:10:11.256Z,17.30
2022-11-14T12:10:45.821Z,17.30
2022-11-14T12:11:45.809Z,17.30
2022-11-14T12:12:45.808Z,17.40
2022-11-14T12:13:45.799Z,17.80
2022-11-14T12:14:45.796Z,16.90
2022-11-14T12:15:45.812Z,17.30
2022-11-14T12:16:45.787Z,17.40
2022-11-14T12:17:45.785Z,17.60
2022-11-14T12:18:45.778Z,16.90
2022-11-14T12:19:45.772Z,17.40
2022-11-14T12:20:45.765Z,17.70
2022-11-14T12:21:45.763Z,17.10
2022-11-14T12:22:45.773Z,17.40
2022-11-14T12:23:45.754Z,16.60
2022-11-14T12:24:45.754Z,16.90
2022-11-14T12:25:45.746Z,17.60
2022-11-14T12:26:45.748Z,17.40
2022-11-14T12:27:45.802Z,17.10
2022-11-14T12:28:45.730Z,17.50
2022-11-14T12:29:45.726Z,16.70
2022-11-14T12:30:45.723Z,18.10
2022-11-14T12:31:45.739Z,17.00
2022-11-14T12:32:45.715Z,16.80
2022-11-14T12:33:45.711Z,17.60
2022-11-14T12:34:45.709Z,19.30
2022-11-14T12:35:45.698Z,17.40
2022-11-14T12:36:45.699Z,17.40
2022-11-14T12:37:46.311Z,18.30
2022-11-14T12:38:45.702Z,16.40
2022-11-14T12:39:45.681Z,16.80
2022-11-14T12:40:45.681Z,17.10
2022-11-14T12:41:45.672Z,17.00
2022-11-14T12:42:45.670Z,17.70
2022-11-14T12:43:45.817Z,17.20
2022-11-14T12:44:45.662Z,17.20
2022-11-14T12:45:45.654Z,16.90
2022-11-14T12:46:45.652Z,16.70
2022-11-14T12:47:45.667Z,16.80
2022-11-14T12:48:45.647Z,16.20
2022-11-14T12:49:45.646Z,16.30
2022-11-14T12:50:45.662Z,17.30
2022-11-14T12:51:45.630Z,16.90
2022-11-14T12:52:45.627Z,17.60
2022-11-14T12:53:45.625Z,15.60
2022-11-14T12:54:45.621Z,15.70
2022-11-14T12:55:45.611Z,16.70
2022-11-14T12:56:48.673Z,16.10
2022-11-14T12:57:45.604Z,16.10
2022-11-14T12:58:45.599Z,16.50
2022-11-14T12:59:45.595Z,16.80
2022-11-14T13:00:45.591Z,16.80
2022-11-14T13:01:45.672Z,16.70
2022-11-14T13:02:45.585Z,16.80
2022-11-14T13:03:45.599Z,17.70
2022-11-14T13:04:45.575Z,17.00
2022-11-14T13:05:45.580Z,16.80
2022-11-14T13:06:45.621Z,17.30
2022-11-14T13:07:45.559Z,17.20
2022-11-14T13:08:45.559Z,16.90